createdAt,value
2022-08-26T00:04:16.256Z,5.47
2022-08-26T00:09:18.096Z,5.13
2022-08-26T00:14:20.506Z,5.63
2022-08-26T00:19:22.578Z,6.72
2022-08-26T00:24:24.362Z,7.82
2022-08-26T00:29:27.027Z,4.95
2022-08-26T00:34:28.904Z,6.97
2022-08-26T00:39:31.319Z,8.10
2022-08-26T00:44:32.880Z,7.43
2022-08-26T00:49:39.672Z,5.55
2022-08-26T00:54:46.991Z,6.05
2022-08-26T00:59:54.307Z,6.75
2022-08-26T01:05:00.728Z,5.40
2022-08-26T01:10:07.632Z,6.45
2022-08-26T01:15:13.667Z,5.60
2022-08-26T01:20:34.066Z,6.82
2022-08-26T01:25:40.560Z,6.72
2022-08-26T01:30:46.722Z,6.50
2022-08-26T01:35:50.183Z,6.22
2022-08-26T01:40:54.481Z,7.30
2022-08-26T01:45:56.966Z,6.20
2022-08-26T01:51:01.198Z,5.70
2022-08-26T01:56:04.084Z,5.80
2022-08-26T02:01:07.625Z,6.15
2022-08-26T02:06:11.534Z,7.65
2022-08-26T02:11:15.533Z,6.57
2022-08-26T02:16:23.767Z,7.50
2022-08-26T02:21:25.534Z,6.03
2022-08-26T02:26:27.293Z,7.25
2022-08-26T02:31:29.454Z,7.03
2022-08-26T02:36:31.144Z,5.63
2022-08-26T02:41:33.456Z,6.53
2022-08-26T02:46:35.402Z,5.95
2022-08-26T02:51:38.812Z,6.75
2022-08-26T02:56:41.831Z,7.90
2022-08-26T03:01:45.161Z,9.40
2022-08-26T03:06:52.643Z,9.18
2022-08-26T03:11:55.469Z,7.78
2022-08-26T03:16:59.554Z,7.10
2022-08-26T03:22:02.278Z,9.20
2022-08-26T03:27:07.391Z,7.15
2022-08-26T03:32:09.715Z,7.90
2022-08-26T03:37:12.195Z,7.18
2022-08-26T03:42:14.924Z,6.75
2022-08-26T03:47:17.354Z,8.68
2022-08-26T03:52:18.979Z,6.72
2022-08-26T03:57:20.764Z,6.90
2022-08-26T04:02:24.375Z,7.20
2022-08-26T04:07:27.172Z,6.97
2022-08-26T04:12:29.521Z,9.13
2022-08-26T04:17:31.340Z,7.13
2022-08-26T04:22:33.874Z,7.15
2022-08-26T04:27:35.456Z,6.85
2022-08-26T04:32:37.508Z,7.72
2022-08-26T04:37:43.125Z,7.45
2022-08-26T04:42:44.793Z,8.88
2022-08-26T04:47:46.802Z,7.88
2022-08-26T04:52:48.352Z,8.93
2022-08-26T04:57:49.913Z,8.18
2022-08-26T05:02:51.907Z,8.85
2022-08-26T05:07:53.502Z,6.85
2022-08-26T05:12:55.510Z,7.35
2022-08-26T05:17:59.196Z,10.05
2022-08-26T05:23:02.716Z,6.82
2022-08-26T05:28:04.602Z,6.68
2022-08-26T05:33:09.094Z,6.63
2022-08-26T05:38:15.514Z,7.35
2022-08-26T05:43:17.558Z,10.55
2022-08-26T05:48:24.181Z,8.50
2022-08-26T05:53:26.321Z,8.23
2022-08-26T05:58:28.056Z,7.85
2022-08-26T06:03:31.802Z,7.70
2022-08-26T06:08:34.550Z,6.95
2022-08-26T06:13:37.716Z,6.13
2022-08-26T06:18:42.427Z,6.03
2022-08-26T06:24:04.748Z,7.57
2022-08-26T06:29:07.190Z,7.38
2022-08-26T06:34:10.961Z,8.57
2022-08-26T06:39:14.818Z,4.93
2022-08-26T06:44:16.469Z,8.23
2022-08-26T06:49:18.530Z,9.32
2022-08-26T06:54:31.726Z,7.30
2022-08-26T06:59:33.472Z,8.07
2022-08-26T07:04:35.917Z,8.43
2022-08-26T07:09:37.517Z,6.03
2022-08-26T07:14:39.362Z,7.07
2022-08-26T07:19:40.955Z,6.07
2022-08-26T07:24:42.751Z,6.40
2022-08-26T07:29:46.258Z,5.50
2022-08-26T07:34:48.265Z,6.68
2022-08-26T07:39:49.996Z,5.95
2022-08-26T07:44:51.596Z,6.05
2022-08-26T07:49:55.714Z,5.65
2022-08-26T07:54:59.384Z,5.75
2022-08-26T08:00:02.056Z,7.32
2022-08-26T08:05:16.924Z,6.82
2022-08-26T08:10:22.718Z,5.00
2022-08-26T08:15:28.808Z,5.70
2022-08-26T08:20:30.552Z,6.47
2022-08-26T08:25:34.386Z,7.28
2022-08-26T08:30:39.370Z,6.40
2022-08-26T08:35:42.444Z,7.78
2022-08-26T08:40:45.982Z,7.22
2022-08-26T08:45:52.587Z,5.93
2022-08-26T08:51:39.724Z,8.48
2022-08-26T08:56:55.353Z,6.05
2022-08-26T09:02:03.373Z,6.20
2022-08-26T09:07:08.857Z,8.95
2022-08-26T09:12:20.395Z,6.80
2022-08-26T09:17:43.835Z,5.10
2022-08-26T09:22:46.119Z,10.48
2022-08-26T09:27:50.701Z,5.38
2022-08-26T09:33:00.043Z,13.82
2022-08-26T09:38:02.674Z,5.63
2022-08-26T09:43:22.882Z,6.35
2022-08-26T09:48:35.515Z,7.75
2022-08-26T09:53:52.260Z,6.07
2022-08-26T09:58:57.191Z,9.23
2022-08-26T10:04:12.233Z,6.57
2022-08-26T10:09:18.179Z,5.78
2022-08-26T10:14:29.200Z,7.20
2022-08-26T10:19:55.681Z,7.03
2022-08-26T10:25:03.342Z,8.00
2022-08-26T10:30:11.065Z,6.15
2022-08-26T10:35:15.119Z,6.40
2022-08-26T10:40:44.992Z,9.73
2022-08-26T10:45:54.198Z,6.97
2022-08-26T10:50:56.972Z,9.43
2022-08-26T10:56:18.857Z,8.90
2022-08-26T11:01:47.172Z,7.95
2022-08-26T11:07:31.915Z,7.00
2022-08-26T11:12:36.423Z,7.30
2022-08-26T11:17:44.781Z,8.27
2022-08-26T11:22:47.824Z,6.45
2022-08-26T11:27:52.350Z,7.28
2022-08-26T11:32:58.401Z,6.93
2022-08-26T11:38:12.941Z,6.30
2022-08-26T11:43:19.435Z,7.93
2022-08-26T11:48:43.247Z,6.82
2022-08-26T11:53:45.043Z,7.10
2022-08-26T11:58:58.003Z,4.80
2022-08-26T12:04:01.092Z,8.13
2022-08-26T12:09:10.512Z,7.38
2022-08-26T12:14:21.688Z,8.68
2022-08-26T12:19:32.774Z,5.05
2022-08-26T12:24:35.340Z,6.32
2022-08-26T12:29:37.212Z,5.63
2022-08-26T12:34:43.767Z,5.10
2022-08-26T12:39:45.866Z,4.53
2022-08-26T12:45:06.456Z,5.93
2022-08-26T12:50:15.269Z,6.30
2022-08-26T12:55:19.564Z,6.07
2022-08-26T13:00:28.436Z,6.05
2022-08-26T13:05:35.591Z,4.93
2022-08-26T13:10:39.805Z,5.75
2022-08-26T13:15:41.432Z,6.90
2022-08-26T13:20:44.116Z,4.60
2022-08-26T13:25:45.692Z,6.65
2022-08-26T13:30:49.618Z,6.97
2022-08-26T13:35:51.209Z,6.30
2022-08-26T13:40:52.779Z,8.40
2022-08-26T13:45:54.584Z,8.70
2022-08-26T13:50:56.225Z,10.70
2022-08-26T13:56:01.838Z,8.63
2022-08-26T14:01:03.661Z,6.47
2022-08-26T14:06:05.341Z,6.68
2022-08-26T14:11:07.846Z,5.97
2022-08-26T14:16:13.609Z,7.55
2022-08-26T14:21:15.266Z,7.35
2022-08-26T14:26:28.110Z,8.15
2022-08-26T14:31:33.016Z,6.90
2022-08-26T14:36:35.704Z,8.05
2022-08-26T14:41:54.070Z,7.00
2022-08-26T14:46:57.345Z,5.78
2022-08-26T14:51:59.008Z,6.60
2022-08-26T14:57:04.819Z,6.95
2022-08-26T15:02:08.122Z,7.65
2022-08-26T15:07:09.764Z,7.43
2022-08-26T15:12:14.372Z,6.82
2022-08-26T15:17:15.931Z,6.07
2022-08-26T15:22:17.516Z,6.65
2022-08-26T15:27:19.483Z,6.35
2022-08-26T15:32:21.097Z,6.07
2022-08-26T15:37:22.650Z,6.60
2022-08-26T15:42:24.232Z,7.28
2022-08-26T15:47:25.781Z,7.07
2022-08-26T15:52:30.074Z,9.73
2022-08-26T15:57:32.104Z,12.02
2022-08-26T16:08:39.315Z,10.18
2022-08-26T16:13:40.995Z,10.27
2022-08-26T16:18:43.186Z,9.93
2022-08-26T16:23:45.586Z,11.68
2022-08-26T16:28:47.740Z,8.80
2022-08-26T16:33:51.465Z,7.70
2022-08-26T16:38:56.056Z,9.25
2022-08-26T16:43:58.465Z,9.60
2022-08-26T16:49:03.734Z,8.95
2022-08-26T16:54:06.992Z,7.57
2022-08-26T16:59:11.452Z,7.43
2022-08-26T17:04:13.046Z,10.18
2022-08-26T17:09:14.597Z,8.15
2022-08-26T17:14:16.403Z,9.15
2022-08-26T17:19:20.777Z,9.68
2022-08-26T17:24:22.325Z,8.07
2022-08-26T17:29:23.855Z,7.55
2022-08-26T17:34:25.797Z,12.70
2022-08-26T17:39:27.386Z,11.38
2022-08-26T17:44:29.522Z,18.30
2022-08-26T17:49:31.579Z,18.75
2022-08-26T17:54:33.178Z,28.73
2022-08-26T17:59:34.769Z,20.88
2022-08-26T18:04:36.569Z,18.25
2022-08-26T18:09:38.120Z,20.00
2022-08-26T18:14:39.642Z,19.67
2022-08-26T18:19:41.176Z,21.20
2022-08-26T18:24:42.735Z,18.08
2022-08-26T18:29:59.979Z,19.85
2022-08-26T18:35:02.196Z,14.18
2022-08-26T18:40:09.111Z,19.70
2022-08-26T18:45:16.070Z,21.23
2022-08-26T18:50:18.009Z,19.02
2022-08-26T18:55:19.613Z,21.48
2022-08-26T19:00:21.193Z,18.70
2022-08-26T19:05:22.875Z,22.88
2022-08-26T19:10:24.912Z,31.30
2022-08-26T19:15:26.454Z,29.38
2022-08-26T19:20:27.986Z,23.63
2022-08-26T19:25:29.560Z,26.30
2022-08-26T19:30:31.234Z,29.67
2022-08-26T19:35:34.602Z,34.05
2022-08-26T19:40:37.586Z,34.17
2022-08-26T19:45:40.222Z,31.33
2022-08-26T19:50:42.261Z,29.95
2022-08-26T19:55:43.825Z,36.53
2022-08-26T20:00:45.406Z,46.45
2022-08-26T20:05:47.242Z,39.50
2022-08-26T20:10:48.990Z,37.72
2022-08-26T20:15:50.550Z,35.30
2022-08-26T20:21:10.848Z,32.80
2022-08-26T20:26:13.227Z,44.22
2022-08-26T20:31:14.849Z,45.50
2022-08-26T20:36:16.844Z,46.03
2022-08-26T20:41:18.537Z,38.92
2022-08-26T20:46:24.190Z,48.20
2022-08-26T20:51:27.031Z,46.85
2022-08-26T20:56:28.565Z,42.28
2022-08-26T21:01:34.619Z,49.25
2022-08-26T21:06:38.271Z,49.42
2022-08-26T21:11:42.707Z,65.13
2022-08-26T21:16:45.485Z,51.42
2022-08-26T21:21:48.350Z,58.60
2022-08-26T21:26:50.027Z,59.50
2022-08-26T21:31:52.035Z,56.97
2022-08-26T21:36:53.607Z,52.08
2022-08-26T21:41:55.154Z,55.40
2022-08-26T21:46:56.697Z,66.47
2022-08-26T21:51:58.221Z,65.40
2022-08-26T21:56:59.851Z,49.75
2022-08-26T22:02:01.578Z,44.42
2022-08-26T22:07:03.507Z,42.60
2022-08-26T22:12:08.923Z,52.97
2022-08-26T22:17:10.453Z,56.42
2022-08-26T22:22:13.005Z,48.80
2022-08-26T22:27:14.578Z,45.60
2022-08-26T22:32:18.538Z,44.95
2022-08-26T22:37:20.081Z,42.85
2022-08-26T22:42:21.669Z,42.70
2022-08-26T22:47:23.506Z,40.13
2022-08-26T22:52:25.355Z,39.45
2022-08-26T22:57:26.977Z,52.08
2022-08-26T23:02:28.551Z,46.08
2022-08-26T23:07:30.090Z,50.90
2022-08-26T23:12:32.530Z,54.47
2022-08-26T23:17:35.226Z,61.60
2022-08-26T23:22:37.515Z,55.22
2022-08-26T23:27:41.337Z,52.53
2022-08-26T23:32:42.923Z,51.80
2022-08-26T23:37:46.056Z,63.20
2022-08-26T23:42:48.809Z,54.60
2022-08-26T23:47:50.653Z,55.35
2022-08-26T23:53:08.634Z,65.55
2022-08-26T23:58:11.346Z,53.83
